Time;durP1;ratioP1;P1;durP2;ratioP2;P2;SDS_P1;SDS_P2;PMS_P1;PMS_P2;Temp;Humidity;BMP_temperature;BMP_pressure;BME280_temperature;BME280_humidity;BME280_pressure;Samples;Min_cycle;Max_cycle;Signal;HPM_P1;HPM_P2
2023/07/07 00:00:07;;;;;;;3.40;2.30;;;;;;;;;;5054516;28;20424;-79
2023/07/07 00:02:33;;;;;;;3.17;2.87;;;;;;;;;;5037534;28;20423;-80
2023/07/07 00:04:59;;;;;;;5.73;2.83;;;;;;;;;;5053749;28;20428;-80
2023/07/07 00:07:25;;;;;;;6.00;2.77;;;;;;;;;;5054053;28;20427;-80
2023/07/07 00:09:51;;;;;;;4.10;2.60;;;;;;;;;;5054827;28;20417;-80
2023/07/07 00:12:17;;;;;;;8.27;3.13;;;;;;;;;;5054180;28;20398;-80
2023/07/07 00:14:43;;;;;;;6.07;3.00;;;;;;;;;;5054979;28;20506;-86
2023/07/07 00:17:10;;;;;;;5.97;2.50;;;;;;;;;;5037500;28;20482;-80
2023/07/07 00:19:36;;;;;;;4.50;3.10;;;;;;;;;;5054014;28;20907;-80
2023/07/07 00:22:05;;;;;;;3.17;2.33;;;;;;;;;;5053514;28;20420;-80
2023/07/07 00:24:31;;;;;;;2.43;2.13;;;;;;;;;;5053631;28;20426;-79
2023/07/07 00:26:57;;;;;;;3.30;2.73;;;;;;;;;;5054665;28;20408;-79
2023/07/07 00:29:23;;;;;;;4.77;2.70;;;;;;;;;;5053771;28;20758;-80
2023/07/07 00:31:49;;;;;;;4.40;3.17;;;;;;;;;;5053627;28;20454;-80
2023/07/07 00:34:15;;;;;;;4.90;3.10;;;;;;;;;;5055057;28;20867;-80
2023/07/07 00:36:41;;;;;;;2.30;2.10;;;;;;;;;;5054187;28;20456;-79
2023/07/07 00:39:07;;;;;;;3.60;2.53;;;;;;;;;;5036607;28;20424;-80
2023/07/07 00:41:33;;;;;;;5.90;2.90;;;;;;;;;;5053223;28;20463;-80
2023/07/07 00:44:01;;;;;;;5.47;2.73;;;;;;;;;;5052897;28;20821;-80
2023/07/07 00:46:27;;;;;;;4.43;2.60;;;;;;;;;;5054262;28;20404;-79
2023/07/07 00:48:53;;;;;;;6.97;3.37;;;;;;;;;;5053295;28;20408;-80
2023/07/07 00:51:27;;;;;;;4.10;3.00;;;;;;;;;;5054457;28;20440;-79
2023/07/07 00:53:54;;;;;;;6.53;2.40;;;;;;;;;;5054152;28;20411;-80
2023/07/07 00:56:31;;;;;;;4.00;2.73;;;;;;;;;;5054689;28;20408;-79
2023/07/07 00:59:01;;;;;;;4.70;3.07;;;;;;;;;;5053948;28;20875;-79
2023/07/07 01:01:27;;;;;;;3.50;2.43;;;;;;;;;;5054283;28;20388;-80
2023/07/07 01:03:56;;;;;;;3.50;2.67;;;;;;;;;;5053047;28;20803;-80
2023/07/07 01:06:24;;;;;;;6.00;3.40;;;;;;;;;;5054295;28;20526;-79
2023/07/07 01:08:58;;;;;;;5.13;3.33;;;;;;;;;;5054222;28;20408;-79
2023/07/07 01:11:24;;;;;;;4.90;3.20;;;;;;;;;;5053351;28;20404;-79
2023/07/07 01:13:50;;;;;;;3.50;2.83;;;;;;;;;;5054252;28;20454;-80
2023/07/07 01:16:23;;;;;;;3.70;3.00;;;;;;;;;;5054425;28;20406;-80
2023/07/07 01:19:05;;;;;;;6.37;3.30;;;;;;;;;;5054251;28;20491;-80
2023/07/07 01:21:39;;;;;;;3.57;2.90;;;;;;;;;;5052658;28;20416;-79
2023/07/07 01:24:18;;;;;;;12.50;3.40;;;;;;;;;;5054210;28;20723;-80
2023/07/07 01:26:44;;;;;;;7.23;3.13;;;;;;;;;;5054252;28;20392;-80
2023/07/07 01:29:19;;;;;;;5.13;3.27;;;;;;;;;;5052817;28;20474;-80
2023/07/07 01:31:56;;;;;;;5.27;3.10;;;;;;;;;;5054282;28;20748;-80
2023/07/07 01:34:22;;;;;;;6.03;3.03;;;;;;;;;;5054571;28;20392;-80
2023/07/07 01:36:48;;;;;;;3.50;3.00;;;;;;;;;;5053902;28;20456;-88
2023/07/07 01:39:14;;;;;;;3.83;3.10;;;;;;;;;;5054230;28;20400;-80
2023/07/07 01:41:46;;;;;;;7.80;2.93;;;;;;;;;;5053767;28;20824;-80
2023/07/07 01:44:12;;;;;;;4.33;3.07;;;;;;;;;;5052379;28;20463;-80
2023/07/07 01:46:43;;;;;;;4.27;3.10;;;;;;;;;;5052723;28;20892;-80
2023/07/07 01:49:14;;;;;;;5.00;3.40;;;;;;;;;;5053691;28;20400;-80
2023/07/07 01:51:55;;;;;;;4.47;3.07;;;;;;;;;;5054081;28;20399;-80
2023/07/07 01:54:21;;;;;;;5.80;3.17;;;;;;;;;;5053940;28;20400;-80
2023/07/07 01:56:48;;;;;;;5.17;3.20;;;;;;;;;;5053552;28;20551;-80
2023/07/07 01:59:15;;;;;;;3.90;2.60;;;;;;;;;;5053829;28;20416;-80
2023/07/07 02:01:41;;;;;;;4.77;3.27;;;;;;;;;;5036388;28;20427;-80
2023/07/07 02:04:07;;;;;;;6.20;3.80;;;;;;;;;;5053945;28;20458;-80
2023/07/07 02:06:33;;;;;;;7.53;3.33;;;;;;;;;;5053811;28;20412;-80
2023/07/07 02:08:59;;;;;;;7.13;3.07;;;;;;;;;;5052161;28;20411;-80
2023/07/07 02:11:25;;;;;;;6.00;3.23;;;;;;;;;;5053490;28;20400;-80
2023/07/07 02:13:51;;;;;;;5.27;3.63;;;;;;;;;;5054760;28;20420;-86
2023/07/07 02:16:17;;;;;;;13.27;3.63;;;;;;;;;;5057640;28;20824;-80
2023/07/07 02:18:48;;;;;;;8.20;3.90;;;;;;;;;;5039768;28;20423;-80
2023/07/07 02:21:17;;;;;;;5.50;3.03;;;;;;;;;;5040481;28;20431;-80
2023/07/07 02:23:44;;;;;;;8.60;3.13;;;;;;;;;;5055843;28;20419;-80
2023/07/07 02:26:10;;;;;;;5.20;2.70;;;;;;;;;;5039307;28;20562;-80
2023/07/07 02:28:36;;;;;;;4.70;3.90;;;;;;;;;;5057317;28;20473;-80
2023/07/07 02:31:02;;;;;;;4.80;3.23;;;;;;;;;;5039575;28;20423;-80
2023/07/07 02:33:33;;;;;;;8.20;4.27;;;;;;;;;;5057565;28;20409;-80
2023/07/07 02:36:04;;;;;;;6.70;3.90;;;;;;;;;;5040400;28;20408;-80
2023/07/07 02:38:30;;;;;;;6.03;4.10;;;;;;;;;;5057184;28;20455;-80
2023/07/07 02:40:57;;;;;;;3.87;3.43;;;;;;;;;;5056882;28;20443;-81
2023/07/07 02:43:23;;;;;;;4.50;3.43;;;;;;;;;;5039036;28;20828;-80
2023/07/07 02:45:49;;;;;;;4.80;3.70;;;;;;;;;;5055407;28;20776;-80
2023/07/07 02:48:16;;;;;;;8.90;3.83;;;;;;;;;;5056682;28;20412;-80
2023/07/07 02:50:42;;;;;;;7.67;3.97;;;;;;;;;;5038904;28;20424;-80
2023/07/07 02:53:08;;;;;;;4.93;3.60;;;;;;;;;;5038805;28;20908;-80
2023/07/07 02:55:34;;;;;;;6.10;3.60;;;;;;;;;;5056979;28;20870;-80
2023/07/07 02:58:01;;;;;;;9.13;4.53;;;;;;;;;;5056599;28;20471;-81
2023/07/07 03:00:28;;;;;;;8.40;4.03;;;;;;;;;;5057015;28;20408;-80
2023/07/07 03:02:54;;;;;;;5.43;3.87;;;;;;;;;;5055263;28;20904;-83
2023/07/07 03:05:20;;;;;;;7.10;3.90;;;;;;;;;;5057072;28;20408;-80
2023/07/07 03:07:46;;;;;;;5.50;4.27;;;;;;;;;;5055403;28;20985;-80
2023/07/07 03:10:12;;;;;;;4.90;3.27;;;;;;;;;;5055385;28;20458;-80
2023/07/07 03:12:38;;;;;;;4.77;3.53;;;;;;;;;;5038814;28;20522;-80
2023/07/07 03:15:04;;;;;;;6.23;4.40;;;;;;;;;;5055865;28;20495;-80
2023/07/07 03:17:31;;;;;;;8.30;4.13;;;;;;;;;;5056306;28;20470;-80
2023/07/07 03:19:57;;;;;;;5.17;3.60;;;;;;;;;;5055226;28;20443;-81
2023/07/07 03:22:23;;;;;;;4.20;3.77;;;;;;;;;;5056233;28;20404;-80
2023/07/07 03:24:52;;;;;;;9.93;3.80;;;;;;;;;;5038147;28;20428;-80
2023/07/07 03:27:18;;;;;;;4.77;3.93;;;;;;;;;;5056065;28;20456;-80
2023/07/07 03:29:44;;;;;;;6.00;4.00;;;;;;;;;;5038363;28;20502;-80
2023/07/07 03:32:10;;;;;;;4.90;4.13;;;;;;;;;;5054812;28;20420;-80
2023/07/07 03:34:36;;;;;;;5.63;3.97;;;;;;;;;;5038250;28;20566;-80
2023/07/07 03:37:03;;;;;;;7.33;4.40;;;;;;;;;;5054638;28;20471;-80
2023/07/07 03:39:29;;;;;;;6.50;4.13;;;;;;;;;;5055175;28;20480;-80
2023/07/07 03:41:55;;;;;;;5.67;3.60;;;;;;;;;;5055643;28;20423;-80
2023/07/07 03:44:22;;;;;;;5.33;3.97;;;;;;;;;;5037782;28;20471;-81
2023/07/07 03:46:48;;;;;;;4.27;3.80;;;;;;;;;;5055243;28;20431;-80
2023/07/07 03:49:14;;;;;;;7.10;4.27;;;;;;;;;;5054778;28;20502;-80
2023/07/07 03:51:40;;;;;;;6.90;4.37;;;;;;;;;;5054696;28;20896;-81
2023/07/07 03:54:06;;;;;;;5.03;4.53;;;;;;;;;;5054410;28;20412;-81
2023/07/07 03:56:32;;;;;;;7.47;4.63;;;;;;;;;;5055761;28;20400;-80
2023/07/07 03:58:58;;;;;;;6.63;4.10;;;;;;;;;;5056040;28;20430;-82
2023/07/07 04:01:24;;;;;;;9.43;4.20;;;;;;;;;;5054289;28;20401;-80
2023/07/07 04:03:50;;;;;;;9.83;4.50;;;;;;;;;;5054431;28;20411;-80
2023/07/07 04:06:17;;;;;;;9.03;4.10;;;;;;;;;;5055469;28;20419;-80
2023/07/07 04:08:42;;;;;;;5.83;4.20;;;;;;;;;;5055404;28;20440;-80
2023/07/07 04:11:10;;;;;;;5.67;4.40;;;;;;;;;;5053675;28;20408;-81
2023/07/07 04:13:37;;;;;;;4.60;4.20;;;;;;;;;;5054083;28;20451;-80
2023/07/07 04:16:11;;;;;;;5.20;3.93;;;;;;;;;;5054150;28;20495;-80
2023/07/07 04:18:38;;;;;;;5.27;3.77;;;;;;;;;;5054110;28;20548;-80
2023/07/07 04:21:07;;;;;;;6.13;4.23;;;;;;;;;;5055218;28;20404;-81
2023/07/07 04:23:35;;;;;;;9.23;4.60;;;;;;;;;;5054194;28;20816;-80
2023/07/07 04:26:01;;;;;;;4.80;4.07;;;;;;;;;;5053691;28;20472;-81
2023/07/07 04:28:29;;;;;;;7.93;4.47;;;;;;;;;;5055530;28;20408;-80
2023/07/07 04:30:56;;;;;;;8.53;4.80;;;;;;;;;;5054082;28;20898;-80
2023/07/07 04:33:23;;;;;;;5.20;4.07;;;;;;;;;;5054154;28;20408;-81
2023/07/07 04:35:53;;;;;;;7.20;4.40;;;;;;;;;;5054238;28;20431;-80
2023/07/07 04:38:19;;;;;;;7.50;4.30;;;;;;;;;;5053978;28;20491;-81
2023/07/07 04:40:45;;;;;;;8.00;4.33;;;;;;;;;;5054712;28;20772;-80
2023/07/07 04:43:11;;;;;;;5.50;4.77;;;;;;;;;;5054990;28;20776;-80
2023/07/07 04:45:37;;;;;;;5.10;4.33;;;;;;;;;;5055151;28;20420;-80
2023/07/07 04:48:03;;;;;;;9.57;5.00;;;;;;;;;;5037095;28;20903;-81
2023/07/07 04:50:32;;;;;;;5.47;4.00;;;;;;;;;;5054919;28;20408;-81
2023/07/07 04:52:58;;;;;;;6.60;4.80;;;;;;;;;;5053796;28;20761;-80
2023/07/07 04:55:24;;;;;;;9.93;4.10;;;;;;;;;;5054798;28;20491;-80
2023/07/07 04:57:50;;;;;;;8.03;4.30;;;;;;;;;;5053720;28;20987;-80
2023/07/07 05:00:16;;;;;;;8.13;4.60;;;;;;;;;;5054798;28;20418;-80
2023/07/07 05:02:43;;;;;;;7.23;4.50;;;;;;;;;;5053490;28;20404;-80
2023/07/07 05:05:09;;;;;;;6.87;4.20;;;;;;;;;;5054501;28;20462;-80
2023/07/07 05:07:35;;;;;;;6.60;4.80;;;;;;;;;;5053324;28;20412;-80
2023/07/07 05:10:01;;;;;;;6.10;4.57;;;;;;;;;;5036951;28;20436;-81
2023/07/07 05:12:27;;;;;;;7.67;5.10;;;;;;;;;;5054826;28;20928;-80
2023/07/07 05:14:53;;;;;;;8.17;4.97;;;;;;;;;;5053644;28;20416;-80
2023/07/07 05:17:19;;;;;;;10.10;5.40;;;;;;;;;;5054167;28;20459;-80
2023/07/07 05:19:44;;;;;;;8.20;5.10;;;;;;;;;;5053509;28;20420;-80
2023/07/07 05:22:10;;;;;;;8.13;5.90;;;;;;;;;;5036674;28;20473;-80
2023/07/07 05:24:36;;;;;;;7.07;4.60;;;;;;;;;;5054532;28;20436;-80
2023/07/07 05:27:02;;;;;;;8.30;4.80;;;;;;;;;;5054689;28;20448;-89
2023/07/07 05:29:29;;;;;;;6.53;5.37;;;;;;;;;;5053342;28;20457;-80
2023/07/07 05:31:54;;;;;;;5.70;4.90;;;;;;;;;;5036383;28;20422;-80
2023/07/07 05:34:20;;;;;;;6.63;4.30;;;;;;;;;;5054623;28;20443;-81
2023/07/07 05:36:46;;;;;;;8.50;4.73;;;;;;;;;;5053479;28;20470;-80
2023/07/07 05:39:12;;;;;;;6.77;5.53;;;;;;;;;;5053282;28;20408;-80
2023/07/07 05:41:38;;;;;;;8.77;5.23;;;;;;;;;;5053376;28;20419;-80
2023/07/07 05:44:04;;;;;;;6.90;4.60;;;;;;;;;;5052448;28;20513;-81
2023/07/07 05:46:30;;;;;;;9.60;5.30;;;;;;;;;;5053577;28;20875;-80
2023/07/07 05:48:56;;;;;;;8.00;5.20;;;;;;;;;;5058330;28;20407;-81
2023/07/07 05:51:22;;;;;;;6.30;4.17;;;;;;;;;;5057917;28;20408;-80
2023/07/07 05:53:48;;;;;;;7.33;5.10;;;;;;;;;;5058096;28;20408;-81
2023/07/07 05:56:17;;;;;;;8.63;4.63;;;;;;;;;;5058100;28;20410;-80
2023/07/07 05:58:43;;;;;;;7.90;5.47;;;;;;;;;;5057960;28;20439;-80
2023/07/07 06:01:10;;;;;;;8.43;5.40;;;;;;;;;;5057891;28;20412;-80
2023/07/07 06:03:37;;;;;;;7.90;5.57;;;;;;;;;;5058352;28;20407;-80
2023/07/07 06:06:03;;;;;;;7.10;5.27;;;;;;;;;;5057986;28;20407;-80
2023/07/07 06:08:29;;;;;;;9.73;5.80;;;;;;;;;;5056666;28;20420;-80
2023/07/07 06:10:55;;;;;;;8.93;5.23;;;;;;;;;;5058086;28;20925;-80
2023/07/07 06:13:24;;;;;;;9.80;5.60;;;;;;;;;;5039923;28;20431;-82
2023/07/07 06:15:53;;;;;;;8.20;5.33;;;;;;;;;;5056943;28;20958;-80
2023/07/07 06:18:19;;;;;;;12.30;6.20;;;;;;;;;;5057615;28;20426;-80
2023/07/07 06:20:49;;;;;;;10.70;5.93;;;;;;;;;;5056591;28;20462;-80
2023/07/07 06:23:15;;;;;;;9.97;6.10;;;;;;;;;;5056211;28;20416;-80
2023/07/07 06:25:41;;;;;;;9.40;5.47;;;;;;;;;;5056179;28;20383;-80
2023/07/07 06:28:07;;;;;;;10.13;6.47;;;;;;;;;;5056213;28;20470;-82
2023/07/07 06:30:33;;;;;;;9.67;6.07;;;;;;;;;;5039619;28;20425;-82
2023/07/07 06:32:59;;;;;;;9.20;5.83;;;;;;;;;;5057013;28;20408;-80
2023/07/07 06:35:26;;;;;;;10.63;5.73;;;;;;;;;;5056066;28;20405;-80
2023/07/07 06:37:52;;;;;;;10.93;6.70;;;;;;;;;;5057279;28;20451;-80
2023/07/07 06:40:18;;;;;;;9.13;6.50;;;;;;;;;;5038942;28;20427;-80
2023/07/07 06:42:44;;;;;;;9.97;5.80;;;;;;;;;;5055174;28;20472;-81
2023/07/07 06:45:10;;;;;;;9.23;5.50;;;;;;;;;;5056817;28;20910;-82
2023/07/07 06:47:36;;;;;;;13.43;5.47;;;;;;;;;;5056078;28;20820;-81
2023/07/07 06:50:02;;;;;;;8.03;5.30;;;;;;;;;;5039410;28;20387;-81
2023/07/07 06:52:28;;;;;;;11.53;4.67;;;;;;;;;;5057228;28;20898;-80
2023/07/07 06:54:55;;;;;;;6.57;4.90;;;;;;;;;;5057078;28;20421;-80
2023/07/07 06:57:21;;;;;;;7.43;4.73;;;;;;;;;;5055288;28;20441;-80
2023/07/07 06:59:47;;;;;;;9.40;5.07;;;;;;;;;;5056026;28;20379;-80
2023/07/07 07:02:13;;;;;;;12.70;5.00;;;;;;;;;;5055586;28;20415;-81
2023/07/07 07:04:40;;;;;;;6.13;4.40;;;;;;;;;;5055483;28;20420;-80
2023/07/07 07:07:06;;;;;;;10.20;4.53;;;;;;;;;;5056624;28;20383;-80
2023/07/07 07:09:32;;;;;;;13.00;5.00;;;;;;;;;;5056300;28;20383;-80
2023/07/07 07:11:58;;;;;;;6.33;4.33;;;;;;;;;;5038347;28;20568;-80
2023/07/07 07:14:24;;;;;;;8.27;5.00;;;;;;;;;;5054908;28;20422;-80
2023/07/07 07:16:50;;;;;;;7.93;3.77;;;;;;;;;;5056584;28;20462;-80
2023/07/07 07:19:16;;;;;;;6.90;3.20;;;;;;;;;;5053798;28;20889;-85
2023/07/07 07:21:42;;;;;;;5.13;3.73;;;;;;;;;;5054346;28;20393;-85
2023/07/07 07:24:08;;;;;;;7.43;4.00;;;;;;;;;;5053992;28;20422;-86
2023/07/07 07:26:34;;;;;;;8.93;4.40;;;;;;;;;;5053473;28;20436;-85
2023/07/07 07:29:00;;;;;;;5.40;3.43;;;;;;;;;;5054694;28;20495;-85
2023/07/07 07:31:26;;;;;;;6.30;3.93;;;;;;;;;;5053845;28;20391;-85
2023/07/07 07:33:53;;;;;;;9.13;3.90;;;;;;;;;;5054326;28;20827;-83
2023/07/07 07:36:19;;;;;;;7.60;3.10;;;;;;;;;;5054721;28;20863;-84
2023/07/07 07:38:45;;;;;;;5.20;3.57;;;;;;;;;;5054258;28;21018;-89
2023/07/07 07:41:11;;;;;;;6.63;2.97;;;;;;;;;;5036908;28;20428;-85
2023/07/07 07:43:37;;;;;;;5.23;3.33;;;;;;;;;;5053330;28;20468;-85
2023/07/07 07:46:06;;;;;;;6.07;3.50;;;;;;;;;;5053529;28;20482;-85
2023/07/07 07:48:32;;;;;;;2.93;2.40;;;;;;;;;;5053559;28;20428;-85
2023/07/07 07:50:58;;;;;;;3.67;2.10;;;;;;;;;;5053463;28;20502;-86
2023/07/07 07:53:24;;;;;;;5.13;1.90;;;;;;;;;;5054653;28;20404;-85
2023/07/07 07:55:50;;;;;;;6.33;2.30;;;;;;;;;;5036946;28;20416;-86
2023/07/07 07:58:18;;;;;;;2.93;2.17;;;;;;;;;;5052910;28;20512;-87
2023/07/07 08:00:44;;;;;;;5.80;2.73;;;;;;;;;;5052807;28;20470;-87
2023/07/07 08:03:10;;;;;;;4.53;2.30;;;;;;;;;;5053135;28;20413;-86
2023/07/07 08:05:36;;;;;;;4.73;2.10;;;;;;;;;;5052599;28;20898;-86
2023/07/07 08:08:02;;;;;;;4.97;2.30;;;;;;;;;;5052314;28;20419;-87
2023/07/07 08:10:28;;;;;;;2.33;1.90;;;;;;;;;;5051589;28;20420;-87
2023/07/07 08:12:54;;;;;;;3.50;2.20;;;;;;;;;;5052529;28;20456;-86
2023/07/07 08:15:22;;;;;;;2.60;2.20;;;;;;;;;;5052356;28;20439;-87
2023/07/07 08:17:48;;;;;;;3.40;2.30;;;;;;;;;;5052693;28;20514;-86
2023/07/07 08:20:19;;;;;;;6.43;2.30;;;;;;;;;;5052123;28;20436;-87
2023/07/07 08:22:47;;;;;;;4.50;2.30;;;;;;;;;;5053832;28;20398;-87
2023/07/07 08:25:13;;;;;;;3.50;2.47;;;;;;;;;;5053549;28;20407;-86
2023/07/07 08:27:39;;;;;;;2.73;1.90;;;;;;;;;;5052140;28;20421;-86
2023/07/07 08:30:06;;;;;;;4.30;2.40;;;;;;;;;;5051947;28;20415;-85
2023/07/07 08:32:32;;;;;;;5.70;2.80;;;;;;;;;;5053285;28;20411;-85
2023/07/07 08:34:58;;;;;;;4.00;2.53;;;;;;;;;;5052210;28;20819;-85
2023/07/07 08:37:25;;;;;;;3.70;2.30;;;;;;;;;;5051343;28;20519;-85
2023/07/07 08:39:54;;;;;;;4.47;2.53;;;;;;;;;;5051992;28;20985;-84
2023/07/07 08:42:34;;;;;;;3.83;2.30;;;;;;;;;;5051169;28;20561;-88
2023/07/07 08:45:02;;;;;;;6.37;2.13;;;;;;;;;;5050145;28;20492;-88
2023/07/07 08:47:28;;;;;;;2.87;2.20;;;;;;;;;;5053269;28;20783;-87
2023/07/07 08:49:57;;;;;;;6.73;2.50;;;;;;;;;;5051756;28;20424;-87
2023/07/07 08:52:30;;;;;;;3.87;2.10;;;;;;;;;;5051348;28;20419;-89
2023/07/07 08:55:18;;;;;;;2.90;2.10;;;;;;;;;;5051744;28;20931;-90
2023/07/07 08:57:49;;;;;;;5.90;2.90;;;;;;;;;;5053794;28;20474;-89
2023/07/07 09:00:22;;;;;;;4.17;2.33;;;;;;;;;;5052411;28;20782;-89
2023/07/07 09:02:48;;;;;;;3.23;2.17;;;;;;;;;;5053768;28;20455;-87
2023/07/07 09:05:17;;;;;;;3.20;1.80;;;;;;;;;;5053487;28;20424;-89
2023/07/07 09:08:00;;;;;;;3.57;2.47;;;;;;;;;;5052275;28;20432;-85
2023/07/07 09:14:00;;;;;;;;;;;;;;;;;;;;;
2023/07/07 09:17:18;;;;;;;;;;;;;;;;;;;;;
2023/07/07 09:54:13;;;;;;;3.90;2.40;;;;;;;;;;5077516;28;20413;-93
2023/07/07 09:56:47;;;;;;;2.30;2.00;;;;;;;;;;5058746;28;20474;-88
2023/07/07 09:59:22;;;;;;;2.77;2.50;;;;;;;;;;5076886;28;20383;-85
2023/07/07 10:01:51;;;;;;;5.63;2.63;;;;;;;;;;5058997;28;20411;-88
2023/07/07 10:04:19;;;;;;;4.80;2.60;;;;;;;;;;5058414;28;20407;-85
2023/07/07 10:07:11;;;;;;;2.70;2.30;;;;;;;;;;5042314;28;20419;-85
2023/07/07 10:09:37;;;;;;;2.87;2.00;;;;;;;;;;5054240;28;20430;-87
2023/07/07 10:12:04;;;;;;;4.33;2.30;;;;;;;;;;5058126;28;20407;-85
2023/07/07 10:14:31;;;;;;;3.10;2.00;;;;;;;;;;5041530;28;20450;-87
2023/07/07 10:17:04;;;;;;;4.23;2.70;;;;;;;;;;5058422;28;20811;-83
2023/07/07 10:19:34;;;;;;;2.60;2.40;;;;;;;;;;5075533;28;20880;-87
2023/07/07 10:22:01;;;;;;;7.90;3.00;;;;;;;;;;5058303;28;20996;-88
2023/07/07 10:24:28;;;;;;;3.50;2.57;;;;;;;;;;5058929;28;20416;-88
2023/07/07 10:26:54;;;;;;;3.10;2.30;;;;;;;;;;5057930;28;20523;-88
2023/07/07 10:29:26;;;;;;;4.40;2.57;;;;;;;;;;5057826;28;20469;-88
2023/07/07 10:31:52;;;;;;;2.20;2.00;;;;;;;;;;5058020;28;20915;-88
2023/07/07 10:34:21;;;;;;;3.00;2.63;;;;;;;;;;5056879;28;20465;-90
2023/07/07 10:36:47;;;;;;;2.90;2.20;;;;;;;;;;5057824;28;20408;-89
2023/07/07 10:39:13;;;;;;;3.20;2.40;;;;;;;;;;5057932;28;20422;-89
2023/07/07 10:41:39;;;;;;;2.60;2.07;;;;;;;;;;5075452;28;20399;-89
2023/07/07 10:44:05;;;;;;;2.60;2.40;;;;;;;;;;5075579;28;20851;-89
2023/07/07 10:46:31;;;;;;;4.33;2.43;;;;;;;;;;5075154;28;20486;-89
2023/07/07 10:48:57;;;;;;;4.90;2.40;;;;;;;;;;5081145;28;20861;-88
2023/07/07 10:51:33;;;;;;;4.63;2.00;;;;;;;;;;5094145;28;20410;-88
2023/07/07 10:54:05;;;;;;;2.30;2.10;;;;;;;;;;5094298;28;20510;-88
2023/07/07 10:56:43;;;;;;;3.10;2.50;;;;;;;;;;5094500;28;20422;-88
2023/07/07 10:59:28;;;;;;;3.70;2.40;;;;;;;;;;5094343;28;20437;-88
2023/07/07 11:02:13;;;;;;;2.83;2.53;;;;;;;;;;5094202;28;20399;-88
2023/07/07 11:04:54;;;;;;;4.17;2.50;;;;;;;;;;5094169;28;20455;-89
2023/07/07 11:07:29;;;;;;;4.17;2.60;;;;;;;;;;5094218;28;20544;-89
2023/07/07 11:09:58;;;;;;;4.73;2.20;;;;;;;;;;5094474;28;20839;-90
2023/07/07 11:12:24;;;;;;;2.70;2.43;;;;;;;;;;5093544;28;20428;-89
2023/07/07 11:15:09;;;;;;;4.37;2.63;;;;;;;;;;5094068;28;20422;-88
2023/07/07 11:17:53;;;;;;;3.47;2.60;;;;;;;;;;5093898;28;20530;-89
2023/07/07 11:20:37;;;;;;;7.20;2.27;;;;;;;;;;5094101;28;20501;-90
2023/07/07 11:23:10;;;;;;;2.60;2.20;;;;;;;;;;5094059;28;20410;-87
2023/07/07 11:25:46;;;;;;;4.17;2.30;;;;;;;;;;5094583;28;20415;-87
2023/07/07 11:28:19;;;;;;;3.20;2.27;;;;;;;;;;5094065;28;20410;-87
2023/07/07 11:30:45;;;;;;;4.03;2.50;;;;;;;;;;5093440;28;20429;-86
2023/07/07 11:33:20;;;;;;;2.90;2.30;;;;;;;;;;5094833;28;20403;-87
2023/07/07 11:35:56;;;;;;;2.60;2.40;;;;;;;;;;5093264;28;20417;-87
2023/07/07 11:38:40;;;;;;;2.70;2.50;;;;;;;;;;5093364;28;20556;-86
2023/07/07 11:41:16;;;;;;;2.23;2.00;;;;;;;;;;5093260;28;20475;-87
2023/07/07 11:43:59;;;;;;;2.70;2.47;;;;;;;;;;5093146;28;20927;-87
2023/07/07 11:46:30;;;;;;;2.30;2.10;;;;;;;;;;5093241;28;20415;-87
2023/07/07 11:48:56;;;;;;;5.20;2.20;;;;;;;;;;5092809;28;20472;-87
2023/07/07 11:51:21;;;;;;;2.80;2.00;;;;;;;;;;5094833;28;20418;-87
2023/07/07 11:53:52;;;;;;;5.33;2.60;;;;;;;;;;5092996;28;20208;-87
2023/07/07 11:56:24;;;;;;;4.63;2.70;;;;;;;;;;5093405;28;20415;-87
2023/07/07 11:58:59;;;;;;;2.77;2.47;;;;;;;;;;5092682;28;20462;-87
2023/07/07 12:01:29;;;;;;;4.10;2.67;;;;;;;;;;5093147;28;20497;-86
2023/07/07 12:03:58;;;;;;;4.23;2.40;;;;;;;;;;5092902;28;20744;-87
2023/07/07 12:06:33;;;;;;;4.07;2.70;;;;;;;;;;5092921;28;20493;-87
2023/07/07 12:09:03;;;;;;;9.17;3.63;;;;;;;;;;5093014;28;20421;-87
2023/07/07 12:11:31;;;;;;;2.27;1.90;;;;;;;;;;5092633;28;20453;-87
2023/07/07 12:13:58;;;;;;;3.50;2.23;;;;;;;;;;5092885;28;20415;-86
2023/07/07 12:16:24;;;;;;;2.60;2.40;;;;;;;;;;5092806;28;20902;-88
2023/07/07 12:18:59;;;;;;;2.00;1.80;;;;;;;;;;5093266;28;21079;-86
2023/07/07 12:21:28;;;;;;;6.93;2.10;;;;;;;;;;5092644;28;20918;-87
2023/07/07 12:24:00;;;;;;;4.03;2.70;;;;;;;;;;5092563;28;20418;-86
2023/07/07 12:26:28;;;;;;;3.17;2.47;;;;;;;;;;5093978;28;20493;-88
2023/07/07 12:28:56;;;;;;;2.63;2.43;;;;;;;;;;5092531;28;20410;-86
2023/07/07 12:31:23;;;;;;;3.10;2.23;;;;;;;;;;5092493;28;20422;-88
2023/07/07 12:33:51;;;;;;;2.67;2.30;;;;;;;;;;5092160;28;20785;-89
2023/07/07 12:36:18;;;;;;;2.70;2.33;;;;;;;;;;5092450;28;20437;-88
2023/07/07 12:38:48;;;;;;;7.70;2.70;;;;;;;;;;5092034;28;20457;-87
2023/07/07 12:41:17;;;;;;;3.30;2.30;;;;;;;;;;5092630;28;20491;-88
2023/07/07 12:44:12;;;;;;;3.50;2.77;;;;;;;;;;5092018;28;20500;-88
2023/07/07 12:46:39;;;;;;;6.30;2.50;;;;;;;;;;5066641;28;20414;-88
2023/07/07 12:49:24;;;;;;;3.97;2.67;;;;;;;;;;5075332;28;20500;-88
2023/07/07 12:51:54;;;;;;;2.77;2.30;;;;;;;;;;5092191;28;20421;-90
2023/07/07 12:54:31;;;;;;;3.50;2.17;;;;;;;;;;5093243;28;20414;-87
2023/07/07 12:57:17;;;;;;;3.53;2.00;;;;;;;;;;5091680;28;20889;-91
2023/07/07 12:59:43;;;;;;;3.77;2.70;;;;;;;;;;5071658;28;20425;-88
2023/07/07 13:02:17;;;;;;;2.97;2.67;;;;;;;;;;5092240;28;20411;-88
2023/07/07 13:04:48;;;;;;;6.20;2.27;;;;;;;;;;5091888;28;20778;-88
2023/07/07 13:07:27;;;;;;;2.57;2.13;;;;;;;;;;5092340;28;20406;-89
2023/07/07 13:09:54;;;;;;;4.80;2.57;;;;;;;;;;5091958;28;20411;-88
2023/07/07 13:12:35;;;;;;;4.13;2.40;;;;;;;;;;5092096;28;20415;-88
2023/07/07 13:15:07;;;;;;;2.90;2.60;;;;;;;;;;5091952;28;20480;-87
2023/07/07 13:17:34;;;;;;;4.60;2.90;;;;;;;;;;5091884;28;20454;-88
2023/07/07 13:20:01;;;;;;;2.83;2.13;;;;;;;;;;5091723;28;20774;-87
2023/07/07 13:22:31;;;;;;;2.93;2.70;;;;;;;;;;5092117;28;20430;-88
2023/07/07 13:24:58;;;;;;;2.40;2.20;;;;;;;;;;5091938;28;20422;-87
2023/07/07 13:27:24;;;;;;;3.27;2.87;;;;;;;;;;5091737;28;20523;-87
2023/07/07 13:29:59;;;;;;;2.93;2.30;;;;;;;;;;5091666;28;20414;-87
2023/07/07 13:32:26;;;;;;;3.77;2.10;;;;;;;;;;5092028;28;20406;-86
2023/07/07 13:34:52;;;;;;;8.90;2.33;;;;;;;;;;5091728;28;20520;-88
2023/07/07 13:37:18;;;;;;;8.23;2.47;;;;;;;;;;5091663;28;20418;-86
2023/07/07 13:39:44;;;;;;;3.70;2.60;;;;;;;;;;5091311;28;20475;-86
2023/07/07 13:42:20;;;;;;;2.50;2.30;;;;;;;;;;5091596;28;20463;-87
2023/07/07 13:44:46;;;;;;;3.17;2.87;;;;;;;;;;5091538;28;21003;-90
2023/07/07 13:47:15;;;;;;;2.60;2.40;;;;;;;;;;5091679;28;20549;-82
2023/07/07 13:49:41;;;;;;;3.43;2.43;;;;;;;;;;5091089;28;20481;-88
2023/07/07 13:52:14;;;;;;;2.73;2.53;;;;;;;;;;5094036;28;20419;-93
2023/07/07 13:54:41;;;;;;;4.03;2.77;;;;;;;;;;5092924;28;20406;-94
2023/07/07 13:57:08;;;;;;;3.20;2.57;;;;;;;;;;5096247;28;20781;-94
2023/07/07 13:59:34;;;;;;;8.00;3.10;;;;;;;;;;5096440;28;20421;-93
2023/07/07 14:02:00;;;;;;;3.20;2.73;;;;;;;;;;5078758;28;20934;-93
2023/07/07 14:04:31;;;;;;;4.87;2.90;;;;;;;;;;5093660;28;20422;-92
2023/07/07 14:06:57;;;;;;;2.60;2.40;;;;;;;;;;5094148;28;20396;-95
2023/07/07 14:09:35;;;;;;;4.23;2.90;;;;;;;;;;5096460;28;20418;-93
2023/07/07 14:12:03;;;;;;;2.20;2.00;;;;;;;;;;5096763;28;20417;-92
2023/07/07 14:14:29;;;;;;;2.70;2.50;;;;;;;;;;5096275;28;20488;-78
2023/07/07 14:17:00;;;;;;;4.23;2.67;;;;;;;;;;5094704;28;20509;-78
2023/07/07 14:19:28;;;;;;;3.50;2.90;;;;;;;;;;5095772;28;20975;-78
2023/07/07 14:21:55;;;;;;;4.20;2.40;;;;;;;;;;5095571;28;20422;-78
2023/07/07 14:24:31;;;;;;;3.10;2.80;;;;;;;;;;5096147;28;20405;-79
2023/07/07 14:26:58;;;;;;;3.50;3.20;;;;;;;;;;5095707;28;20425;-78
2023/07/07 14:29:35;;;;;;;3.23;2.93;;;;;;;;;;5094789;28;20414;-78
2023/07/07 14:32:02;;;;;;;3.67;2.70;;;;;;;;;;5094637;28;20880;-78
2023/07/07 14:34:28;;;;;;;3.90;3.50;;;;;;;;;;5094469;28;20413;-78
2023/07/07 14:36:58;;;;;;;4.70;3.30;;;;;;;;;;5095507;28;20414;-79
2023/07/07 14:39:31;;;;;;;3.50;3.20;;;;;;;;;;5096116;28;20905;-79
2023/07/07 14:42:09;;;;;;;3.20;2.90;;;;;;;;;;5094404;28;20429;-78
2023/07/07 14:44:44;;;;;;;2.77;2.57;;;;;;;;;;5095621;28;20397;-80
2023/07/07 14:47:13;;;;;;;5.97;4.23;;;;;;;;;;5094139;28;20972;-77
2023/07/07 14:49:40;;;;;;;4.17;3.47;;;;;;;;;;5094734;28;20465;-78
2023/07/07 14:52:13;;;;;;;3.70;3.20;;;;;;;;;;5095302;28;20402;-77
2023/07/07 14:54:39;;;;;;;3.30;2.97;;;;;;;;;;5095158;28;20713;-79
2023/07/07 14:57:11;;;;;;;4.50;2.90;;;;;;;;;;5093831;28;20429;-78
2023/07/07 14:59:39;;;;;;;4.60;3.90;;;;;;;;;;5093578;28;20505;-79
2023/07/07 15:02:14;;;;;;;5.60;2.70;;;;;;;;;;5077459;28;20414;-78
2023/07/07 15:04:41;;;;;;;4.77;3.50;;;;;;;;;;5095293;28;20406;-78
2023/07/07 15:07:16;;;;;;;3.57;3.27;;;;;;;;;;5094118;28;20470;-78
2023/07/07 15:09:42;;;;;;;3.97;3.30;;;;;;;;;;5095249;28;20382;-79
2023/07/07 15:12:10;;;;;;;4.30;3.47;;;;;;;;;;5077121;28;20437;-78
2023/07/07 15:14:37;;;;;;;3.70;3.00;;;;;;;;;;5093697;28;20415;-78
2023/07/07 15:17:03;;;;;;;4.87;3.53;;;;;;;;;;5094956;28;20421;-78
2023/07/07 15:19:29;;;;;;;4.43;3.53;;;;;;;;;;5092760;28;20449;-78
2023/07/07 15:21:55;;;;;;;5.63;3.50;;;;;;;;;;5076513;28;20419;-79
2023/07/07 15:24:20;;;;;;;6.23;3.70;;;;;;;;;;5094802;28;20823;-78
2023/07/07 15:26:47;;;;;;;7.33;3.53;;;;;;;;;;5093177;28;20406;-79
2023/07/07 15:29:18;;;;;;;4.03;3.63;;;;;;;;;;5094718;28;20531;-78
2023/07/07 15:31:44;;;;;;;3.77;3.40;;;;;;;;;;5093279;28;20406;-78